Lesmahagow, United Kingdom
Current Conditions -  °F | °C
As of 4:20 AM on Monday 22 Dec 2014 (Local Time) from EGPF Reporting Station
Light Rain Light Rain  
Wind Chill:   Ceiling: 1000
Heat Index:   Visibility: 6mi
Dew Point:   Wind: 8mph
Humidity: 93%   Direction: 270°W
Pressure: 29.59"   Gusts: NA
Location:  55.64°N, 3.89°W
Report Text: EGPF 220420Z AUTO 27007KT 9999 -RA BKN010/// BKN034/// //////TCU 08/07 Q1002
Loading
Personal Weather Stations






























Interactive Weather Map New forecast layout! Learn more

10-Day Weather Forecast

Advertisements
Track Severe Weather on mobile